createdAt,value
2022-12-27T00:01:54.229Z,7.08
2022-12-27T00:04:22.769Z,7.08
2022-12-27T00:06:50.778Z,7.09
2022-12-27T00:09:18.701Z,7.11
2022-12-27T00:11:46.668Z,7.13
2022-12-27T00:14:14.615Z,7.13
2022-12-27T00:16:42.559Z,7.09
2022-12-27T00:19:10.931Z,7.09
2022-12-27T00:21:38.799Z,7.11
2022-12-27T00:24:06.850Z,7.11
2022-12-27T00:26:35.540Z,7.11
2022-12-27T00:29:03.862Z,7.10
2022-12-27T00:31:32.826Z,7.12
2022-12-27T00:34:03.542Z,7.19
2022-12-27T00:36:31.973Z,7.22
2022-12-27T00:39:00.798Z,7.25
2022-12-27T00:41:28.944Z,7.29
2022-12-27T00:43:56.857Z,7.35
2022-12-27T00:46:24.843Z,7.40
2022-12-27T00:48:53.467Z,7.42
2022-12-27T00:51:24.483Z,7.46
2022-12-27T00:53:53.559Z,7.52
2022-12-27T00:56:30.330Z,7.61
2022-12-27T00:59:03.894Z,7.62
2022-12-27T01:01:35.409Z,7.64
2022-12-27T01:04:05.041Z,7.65
2022-12-27T01:06:34.388Z,7.71
2022-12-27T01:09:03.970Z,7.71
2022-12-27T01:11:33.000Z,7.75
2022-12-27T01:14:04.551Z,7.75
2022-12-27T01:16:35.012Z,7.76
2022-12-27T01:19:03.079Z,7.77
2022-12-27T01:21:31.153Z,7.74
2022-12-27T01:23:59.326Z,7.73
2022-12-27T01:26:27.228Z,7.76
2022-12-27T01:28:55.218Z,7.75
2022-12-27T01:31:27.857Z,7.73
2022-12-27T01:33:58.158Z,7.77
2022-12-27T01:36:28.111Z,7.77
2022-12-27T01:39:00.003Z,7.79
2022-12-27T01:41:55.768Z,7.78
2022-12-27T01:44:39.917Z,7.82
2022-12-27T01:47:23.138Z,7.87
2022-12-27T01:49:56.931Z,7.92
2022-12-27T01:52:34.813Z,7.90
2022-12-27T01:55:14.391Z,7.93
2022-12-27T01:57:43.964Z,7.94
2022-12-27T02:00:12.362Z,7.96
2022-12-27T02:02:40.984Z,7.97
2022-12-27T02:05:10.510Z,8.01
2022-12-27T02:07:51.160Z,8.01
2022-12-27T02:10:28.886Z,8.00
2022-12-27T02:12:58.320Z,7.99
2022-12-27T02:15:26.341Z,7.98
2022-12-27T02:17:54.463Z,7.97
2022-12-27T02:20:24.892Z,7.96
2022-12-27T02:23:33.535Z,7.96
2022-12-27T02:26:37.668Z,7.92
2022-12-27T02:29:23.548Z,7.94
2022-12-27T02:32:02.148Z,7.90
2022-12-27T02:34:41.624Z,7.84
2022-12-27T02:37:12.560Z,7.83
2022-12-27T02:39:46.224Z,7.85
2022-12-27T02:42:40.645Z,7.83
2022-12-27T02:45:38.346Z,7.76
2022-12-27T02:48:32.264Z,7.63
2022-12-27T02:51:44.523Z,7.46
2022-12-27T02:54:24.584Z,7.30
2022-12-27T02:57:10.143Z,7.22
2022-12-27T03:00:15.464Z,7.10
2022-12-27T03:03:29.137Z,7.02
2022-12-27T03:06:31.120Z,6.92
2022-12-27T03:09:48.817Z,6.86
2022-12-27T03:13:04.663Z,6.81
2022-12-27T03:15:51.163Z,6.74
2022-12-27T03:18:22.819Z,6.67
2022-12-27T03:21:10.187Z,6.64
2022-12-27T03:24:00.250Z,6.61
2022-12-27T03:26:33.626Z,6.59
2022-12-27T03:29:22.085Z,6.58
2022-12-27T03:32:13.958Z,6.59
2022-12-27T03:34:49.090Z,6.56
2022-12-27T03:37:47.453Z,6.53
2022-12-27T03:41:08.994Z,6.53
2022-12-27T03:43:39.655Z,6.52
2022-12-27T03:46:36.057Z,6.54
2022-12-27T03:49:10.110Z,6.49
2022-12-27T03:51:43.286Z,6.46
2022-12-27T03:54:19.039Z,6.44
2022-12-27T03:56:46.908Z,6.44
2022-12-27T03:59:14.979Z,6.46
2022-12-27T04:01:43.107Z,6.43
2022-12-27T04:04:11.132Z,6.39
2022-12-27T04:06:39.366Z,6.40
2022-12-27T04:09:25.771Z,6.34
2022-12-27T04:12:18.334Z,6.36
2022-12-27T04:15:04.693Z,6.36
2022-12-27T04:17:51.294Z,6.36
2022-12-27T04:20:38.282Z,6.33
2022-12-27T04:23:25.471Z,6.27
2022-12-27T04:26:11.816Z,6.21
2022-12-27T04:33:33.952Z,5.98
2022-12-27T04:36:06.182Z,5.80
2022-12-27T04:38:34.749Z,5.63
2022-12-27T04:41:21.307Z,5.49
2022-12-27T04:44:07.978Z,5.33
2022-12-27T04:46:54.643Z,5.23
2022-12-27T04:49:44.898Z,5.17
2022-12-27T04:52:37.613Z,5.15
2022-12-27T04:59:59.034Z,5.05
2022-12-27T05:02:27.102Z,5.01
2022-12-27T05:09:58.168Z,4.92
2022-12-27T05:12:44.653Z,4.90
2022-12-27T05:15:19.675Z,4.89
2022-12-27T05:17:47.940Z,4.86
2022-12-27T05:20:16.053Z,4.86
2022-12-27T05:23:02.534Z,4.82
2022-12-27T05:25:42.816Z,4.75
2022-12-27T05:28:12.543Z,4.69
2022-12-27T05:30:42.756Z,4.66
2022-12-27T05:33:10.829Z,4.61
2022-12-27T05:35:39.221Z,4.57
2022-12-27T05:38:07.497Z,4.54
2022-12-27T05:40:35.950Z,4.54
2022-12-27T05:43:10.885Z,4.52
2022-12-27T05:45:45.790Z,4.47
2022-12-27T05:48:22.134Z,4.48
2022-12-27T05:50:50.104Z,4.42
2022-12-27T05:53:26.036Z,4.40
2022-12-27T05:55:55.519Z,4.34
2022-12-27T05:58:24.839Z,4.34
2022-12-27T06:00:52.828Z,4.30
2022-12-27T06:03:21.337Z,4.21
2022-12-27T06:05:49.765Z,4.10
2022-12-27T06:08:17.866Z,4.00
2022-12-27T06:10:45.844Z,3.88
2022-12-27T06:13:14.348Z,3.73
2022-12-27T06:15:42.273Z,3.60
2022-12-27T06:18:10.243Z,3.50
2022-12-27T06:20:38.145Z,3.41
2022-12-27T06:23:06.114Z,3.35
2022-12-27T06:25:34.056Z,3.29
2022-12-27T06:28:02.033Z,3.27
2022-12-27T06:30:35.858Z,3.24
2022-12-27T06:33:04.182Z,3.21
2022-12-27T06:35:32.090Z,3.17
2022-12-27T06:37:59.964Z,3.15
2022-12-27T06:40:27.809Z,3.12
2022-12-27T06:42:55.753Z,3.10
2022-12-27T06:45:23.701Z,3.06
2022-12-27T06:47:51.596Z,3.04
2022-12-27T06:50:19.507Z,2.97
2022-12-27T06:52:47.977Z,2.97
2022-12-27T06:55:16.272Z,3.00
2022-12-27T06:57:45.165Z,2.92
2022-12-27T07:00:13.947Z,2.94
2022-12-27T07:02:42.274Z,2.92
2022-12-27T07:05:10.427Z,2.91
2022-12-27T07:07:38.310Z,2.91
2022-12-27T07:10:06.889Z,2.91
2022-12-27T07:12:36.930Z,2.91
2022-12-27T07:15:07.009Z,2.86
2022-12-27T07:17:36.236Z,2.91
2022-12-27T07:20:06.031Z,2.91
2022-12-27T07:22:34.455Z,2.90
2022-12-27T07:25:02.382Z,2.88
2022-12-27T07:27:35.639Z,2.87
2022-12-27T07:30:04.686Z,2.90
2022-12-27T07:32:38.118Z,2.92
2022-12-27T07:35:08.530Z,2.88
2022-12-27T07:37:38.201Z,2.89
2022-12-27T07:40:07.536Z,2.90
2022-12-27T07:42:35.696Z,2.94
2022-12-27T07:45:05.157Z,2.96
2022-12-27T07:47:35.671Z,2.89
2022-12-27T07:50:03.943Z,2.93
2022-12-27T07:52:32.066Z,2.93
2022-12-27T07:54:59.963Z,2.95
2022-12-27T07:57:31.273Z,2.91
2022-12-27T07:59:59.496Z,2.91
2022-12-27T08:02:27.514Z,2.96
2022-12-27T08:04:55.490Z,2.92
2022-12-27T08:07:26.104Z,2.93
2022-12-27T08:09:54.066Z,2.97
2022-12-27T08:12:22.055Z,3.00
2022-12-27T08:14:50.194Z,3.00
2022-12-27T08:17:22.197Z,3.03
2022-12-27T08:19:55.289Z,3.04
2022-12-27T08:23:10.542Z,3.08
2022-12-27T08:25:42.061Z,3.11
2022-12-27T08:28:16.981Z,3.08
2022-12-27T08:30:46.733Z,3.05
2022-12-27T08:33:15.394Z,3.05
2022-12-27T08:35:54.066Z,3.05
2022-12-27T08:38:22.421Z,3.06
2022-12-27T08:40:50.961Z,3.05
2022-12-27T08:43:18.949Z,2.99
2022-12-27T08:45:47.235Z,2.97
2022-12-27T08:48:15.957Z,2.92
2022-12-27T08:50:44.286Z,2.88
2022-12-27T08:53:12.243Z,2.86
2022-12-27T08:55:40.175Z,2.83
2022-12-27T08:58:15.719Z,2.79
2022-12-27T09:00:44.430Z,2.80
2022-12-27T09:03:12.436Z,2.82
2022-12-27T09:05:42.088Z,2.81
2022-12-27T09:08:11.313Z,2.80
2022-12-27T09:10:39.707Z,2.83
2022-12-27T09:13:07.648Z,2.82
2022-12-27T09:15:37.125Z,2.82
2022-12-27T09:18:06.583Z,2.86
2022-12-27T09:20:34.521Z,2.90
2022-12-27T09:23:02.453Z,2.92
2022-12-27T09:25:30.425Z,2.94
2022-12-27T09:27:58.790Z,3.00
2022-12-27T09:30:26.686Z,3.05
2022-12-27T09:32:54.640Z,3.04
2022-12-27T09:35:22.600Z,3.07
2022-12-27T09:37:50.968Z,3.09
2022-12-27T09:40:20.608Z,3.14
2022-12-27T09:43:22.325Z,3.24
2022-12-27T09:45:56.156Z,3.30
2022-12-27T09:48:42.020Z,3.32
2022-12-27T09:51:18.188Z,3.35
2022-12-27T09:54:01.575Z,3.39
2022-12-27T09:56:54.574Z,3.45
2022-12-27T09:59:38.575Z,3.46
2022-12-27T10:02:27.489Z,3.54
2022-12-27T10:05:19.896Z,3.66
2022-12-27T10:08:00.099Z,3.72
2022-12-27T10:10:41.171Z,3.67
2022-12-27T10:13:21.983Z,3.62
2022-12-27T10:16:00.915Z,3.55
2022-12-27T10:19:14.501Z,3.53
2022-12-27T10:22:03.259Z,3.49
2022-12-27T10:24:39.250Z,3.39
2022-12-27T10:27:25.048Z,3.49
2022-12-27T10:30:13.453Z,3.51
2022-12-27T10:32:41.434Z,3.58
2022-12-27T10:35:14.883Z,3.65
2022-12-27T10:37:43.925Z,3.74
2022-12-27T10:40:29.805Z,3.89
2022-12-27T10:43:23.488Z,4.00
2022-12-27T10:45:52.222Z,4.10
2022-12-27T10:48:47.473Z,4.17
2022-12-27T10:51:20.254Z,4.15
2022-12-27T10:53:48.516Z,4.16
2022-12-27T10:56:26.948Z,4.19
2022-12-27T10:59:07.482Z,4.19
2022-12-27T11:01:35.685Z,4.23
2022-12-27T11:04:20.598Z,4.16
2022-12-27T11:07:18.293Z,4.07
2022-12-27T11:09:51.037Z,4.06
2022-12-27T11:12:25.889Z,4.15
2022-12-27T11:14:56.538Z,4.29
2022-12-27T11:17:29.467Z,4.46
2022-12-27T11:20:00.522Z,4.57
2022-12-27T11:22:28.881Z,4.67
2022-12-27T11:25:00.103Z,4.68
2022-12-27T11:27:29.628Z,4.74
2022-12-27T11:29:59.474Z,4.74
2022-12-27T11:32:27.714Z,5.23
2022-12-27T11:34:57.406Z,6.01
2022-12-27T11:37:32.105Z,6.48
2022-12-27T11:40:35.929Z,7.21
2022-12-27T11:43:10.676Z,6.63
2022-12-27T11:45:47.720Z,6.93
2022-12-27T11:48:23.187Z,7.03
2022-12-27T11:51:17.558Z,7.07
2022-12-27T11:54:04.336Z,6.71
2022-12-27T11:56:39.055Z,6.75
2022-12-27T11:59:28.621Z,6.76
2022-12-27T12:02:41.779Z,6.03
2022-12-27T12:05:31.377Z,5.35
2022-12-27T12:08:22.025Z,5.05
2022-12-27T12:11:36.426Z,4.84
2022-12-27T12:14:35.013Z,4.61
2022-12-27T12:17:33.993Z,4.46
2022-12-27T12:20:34.504Z,4.35
2022-12-27T12:23:40.574Z,4.29
2022-12-27T12:26:26.388Z,4.27
2022-12-27T12:29:33.822Z,4.24
2022-12-27T12:32:15.545Z,4.20
2022-12-27T12:35:22.090Z,4.20
2022-12-27T12:38:04.887Z,4.20
2022-12-27T12:40:54.813Z,4.20
2022-12-27T12:43:28.579Z,4.20
2022-12-27T12:46:05.380Z,4.20
2022-12-27T12:48:45.456Z,4.21
2022-12-27T12:51:19.133Z,4.20
2022-12-27T12:54:12.564Z,4.16
2022-12-27T12:57:14.193Z,4.11
2022-12-27T13:00:19.902Z,4.12
2022-12-27T13:02:56.929Z,4.11
2022-12-27T13:05:31.038Z,4.35
2022-12-27T13:08:10.838Z,4.92
2022-12-27T13:10:54.156Z,5.40
2022-12-27T13:13:50.766Z,5.54
2022-12-27T13:16:43.219Z,5.52
2022-12-27T13:19:11.220Z,5.80
2022-12-27T13:21:48.070Z,5.86
2022-12-27T13:24:43.899Z,6.12
2022-12-27T13:27:35.384Z,5.98
2022-12-27T13:30:21.826Z,6.40
2022-12-27T13:33:20.866Z,7.39
2022-12-27T13:36:26.894Z,7.71
2022-12-27T13:39:12.471Z,7.07
2022-12-27T13:41:46.567Z,6.23
2022-12-27T13:44:29.442Z,5.68
2022-12-27T13:47:12.776Z,5.23
2022-12-27T13:49:58.955Z,4.91
2022-12-27T13:52:59.817Z,4.71
2022-12-27T13:55:50.140Z,4.56
2022-12-27T13:58:57.731Z,4.43
2022-12-27T14:01:27.495Z,4.28
2022-12-27T14:04:24.172Z,4.21
2022-12-27T14:07:12.453Z,4.13
2022-12-27T14:10:02.183Z,4.09
2022-12-27T14:13:08.065Z,4.04
2022-12-27T14:16:28.363Z,4.01
2022-12-27T14:19:08.415Z,4.04
2022-12-27T14:22:01.874Z,4.07
2022-12-27T14:25:01.138Z,4.04
2022-12-27T14:27:56.779Z,3.99
2022-12-27T14:30:57.819Z,4.00
2022-12-27T14:33:50.529Z,4.16
2022-12-27T14:36:24.560Z,4.22
2022-12-27T14:39:10.644Z,4.10
2022-12-27T14:41:47.355Z,3.95
2022-12-27T14:44:21.211Z,3.86
2022-12-27T14:46:58.240Z,3.78
2022-12-27T14:49:42.347Z,3.75
2022-12-27T14:52:28.570Z,3.70
2022-12-27T14:55:22.771Z,3.66
2022-12-27T14:58:20.383Z,3.63
2022-12-27T15:01:00.521Z,3.57
2022-12-27T15:03:51.118Z,3.54
2022-12-27T15:06:44.633Z,3.50
2022-12-27T15:09:24.761Z,3.48
2022-12-27T15:12:11.087Z,3.45
2022-12-27T15:14:45.052Z,3.42
2022-12-27T15:17:35.918Z,3.40
2022-12-27T15:20:15.813Z,3.36
2022-12-27T15:23:10.238Z,3.35
2022-12-27T15:26:11.581Z,3.34
2022-12-27T15:29:11.211Z,3.30
2022-12-27T15:32:07.013Z,3.31
2022-12-27T15:34:52.082Z,3.27
2022-12-27T15:37:48.246Z,3.28
2022-12-27T15:40:25.391Z,3.23
2022-12-27T15:43:27.403Z,3.20
2022-12-27T15:46:37.612Z,3.12
2022-12-27T15:49:37.186Z,3.01
2022-12-27T15:52:17.339Z,2.92
2022-12-27T15:55:00.568Z,2.85
2022-12-27T15:58:19.860Z,2.82
2022-12-27T16:01:23.844Z,2.82
2022-12-27T16:03:55.003Z,2.75
2022-12-27T16:06:35.279Z,2.68
2022-12-27T16:09:32.771Z,2.60
2022-12-27T16:12:13.760Z,2.54
2022-12-27T16:14:43.187Z,2.47
2022-12-27T16:17:29.857Z,2.44
2022-12-27T16:20:03.737Z,2.40
2022-12-27T16:22:36.817Z,2.39
2022-12-27T16:25:42.108Z,2.36
2022-12-27T16:28:16.014Z,2.30
2022-12-27T16:30:46.374Z,2.25
2022-12-27T16:33:26.611Z,2.20
2022-12-27T16:36:13.443Z,2.19
2022-12-27T16:39:12.536Z,2.21
2022-12-27T16:41:58.596Z,2.22
2022-12-27T16:44:28.048Z,2.23
2022-12-27T16:47:18.026Z,2.18
2022-12-27T16:50:04.682Z,2.15
2022-12-27T16:52:47.556Z,2.16
2022-12-27T16:55:15.708Z,2.17
2022-12-27T16:57:46.509Z,2.19
2022-12-27T17:00:26.771Z,2.23
2022-12-27T17:03:21.715Z,2.21
2022-12-27T17:06:31.347Z,2.18
2022-12-27T17:08:44.711Z,2.13
2022-12-27T17:11:30.077Z,2.12
2022-12-27T17:14:06.811Z,2.12
2022-12-27T17:17:02.798Z,2.10
2022-12-27T17:19:37.360Z,2.08
2022-12-27T17:22:11.012Z,2.08
2022-12-27T17:24:39.014Z,2.03
2022-12-27T17:27:25.529Z,2.03
2022-12-27T17:30:12.198Z,2.06
2022-12-27T17:32:43.338Z,2.07
2022-12-27T17:35:34.440Z,2.08
2022-12-27T17:38:31.736Z,2.04
2022-12-27T17:41:15.500Z,1.99
2022-12-27T17:44:19.300Z,2.00
2022-12-27T17:46:50.274Z,2.02
2022-12-27T17:49:27.075Z,1.99
2022-12-27T17:52:19.445Z,1.97
2022-12-27T17:55:06.630Z,1.95
2022-12-27T17:57:53.267Z,1.97
2022-12-27T18:00:24.568Z,1.98
2022-12-27T18:02:55.512Z,1.98
2022-12-27T18:05:30.486Z,2.00
2022-12-27T18:08:05.588Z,1.97
2022-12-27T18:10:36.679Z,1.96
2022-12-27T18:13:06.862Z,2.01
2022-12-27T18:15:43.024Z,2.01
2022-12-27T18:18:27.659Z,2.00
2022-12-27T18:21:06.651Z,1.98
2022-12-27T18:23:43.163Z,1.96
2022-12-27T18:26:13.989Z,1.96
2022-12-27T18:28:43.208Z,1.99
2022-12-27T18:31:25.386Z,1.99
2022-12-27T18:34:00.874Z,1.98
2022-12-27T18:36:33.555Z,1.95
2022-12-27T18:39:16.086Z,1.95
2022-12-27T18:41:55.753Z,1.93
2022-12-27T18:44:28.035Z,1.96
2022-12-27T18:47:01.467Z,1.99
2022-12-27T18:49:37.283Z,1.99
2022-12-27T18:52:15.092Z,1.95
2022-12-27T18:54:43.525Z,1.92
2022-12-27T18:57:32.150Z,1.93
2022-12-27T19:00:02.774Z,1.93
2022-12-27T19:02:36.372Z,1.97
2022-12-27T19:05:26.135Z,1.96
2022-12-27T19:08:14.151Z,1.95
2022-12-27T19:10:50.485Z,1.92
2022-12-27T19:13:23.393Z,1.89
2022-12-27T19:15:52.725Z,1.94
2022-12-27T19:18:36.248Z,2.21
2022-12-27T19:21:06.131Z,2.30
2022-12-27T19:23:37.368Z,2.42
2022-12-27T19:26:27.941Z,2.48
2022-12-27T19:29:02.647Z,2.44
2022-12-27T19:31:31.121Z,2.30
2022-12-27T19:34:08.254Z,2.24
2022-12-27T19:36:42.026Z,2.25
2022-12-27T19:39:29.190Z,2.18
2022-12-27T19:42:01.713Z,2.08
2022-12-27T19:44:31.710Z,1.99
2022-12-27T19:47:49.583Z,1.92
2022-12-27T19:50:17.512Z,1.90
2022-12-27T19:52:47.526Z,1.91
2022-12-27T19:55:21.678Z,1.86
2022-12-27T19:57:49.710Z,1.82
2022-12-27T20:00:18.727Z,1.75
2022-12-27T20:02:47.047Z,1.68
2022-12-27T20:05:15.397Z,1.65
2022-12-27T20:07:43.606Z,1.62
2022-12-27T20:10:15.806Z,1.60
2022-12-27T20:12:43.845Z,1.62
2022-12-27T20:15:11.813Z,1.59
2022-12-27T20:17:44.946Z,1.53
2022-12-27T20:20:14.174Z,1.50
2022-12-27T20:22:42.176Z,1.48
2022-12-27T20:25:11.073Z,1.47
2022-12-27T20:27:39.671Z,1.46
2022-12-27T20:30:08.300Z,1.43
2022-12-27T20:32:37.476Z,1.37
2022-12-27T20:35:05.949Z,1.32
2022-12-27T20:37:33.981Z,1.29
2022-12-27T20:40:01.963Z,1.28
2022-12-27T20:42:29.970Z,1.29
2022-12-27T20:44:57.923Z,1.31
2022-12-27T20:47:26.003Z,1.29
2022-12-27T20:49:53.955Z,1.28
2022-12-27T20:52:25.736Z,1.29
2022-12-27T20:54:58.720Z,1.28
2022-12-27T20:57:26.731Z,1.30
2022-12-27T20:59:54.696Z,1.34
2022-12-27T21:02:22.831Z,1.36
2022-12-27T21:04:52.015Z,1.37
2022-12-27T21:07:20.135Z,1.35
2022-12-27T21:09:48.074Z,1.35
2022-12-27T21:12:16.886Z,1.36
2022-12-27T21:14:44.791Z,1.38
2022-12-27T21:17:12.780Z,1.41
2022-12-27T21:19:40.872Z,1.43
2022-12-27T21:22:09.088Z,1.43
2022-12-27T21:24:37.143Z,1.42
2022-12-27T21:27:30.509Z,1.42
2022-12-27T21:29:58.739Z,1.46
2022-12-27T21:32:26.946Z,1.49
2022-12-27T21:34:55.014Z,1.50
2022-12-27T21:37:23.204Z,1.48
2022-12-27T21:39:51.237Z,1.56
2022-12-27T21:42:19.211Z,1.90
2022-12-27T21:44:47.136Z,2.06
2022-12-27T21:47:15.077Z,2.36
2022-12-27T21:49:42.983Z,2.50
2022-12-27T21:52:16.774Z,2.49
2022-12-27T21:54:44.976Z,2.41
2022-12-27T21:57:12.965Z,2.34
2022-12-27T21:59:40.916Z,2.43
2022-12-27T22:02:09.168Z,2.41
2022-12-27T22:04:38.393Z,2.33
2022-12-27T22:07:06.500Z,2.30
2022-12-27T22:09:34.746Z,2.29
2022-12-27T22:12:02.667Z,2.32
2022-12-27T22:14:36.606Z,2.31
2022-12-27T22:17:04.906Z,2.25
2022-12-27T22:19:32.774Z,2.19
2022-12-27T22:22:00.667Z,2.11
2022-12-27T22:24:28.718Z,2.00
2022-12-27T22:26:56.651Z,1.92
2022-12-27T22:29:25.076Z,1.86
2022-12-27T22:31:53.663Z,1.81
2022-12-27T22:34:21.672Z,1.80
2022-12-27T22:36:52.918Z,1.80
2022-12-27T22:39:20.826Z,1.78
2022-12-27T22:41:48.769Z,1.77
2022-12-27T22:44:16.801Z,1.74
2022-12-27T22:47:15.712Z,1.71
2022-12-27T22:49:32.694Z,1.73
2022-12-27T22:52:00.643Z,1.76
2022-12-27T22:55:06.001Z,1.76
2022-12-27T22:57:16.722Z,1.77
2022-12-27T22:59:44.745Z,1.76
2022-12-27T23:02:12.902Z,1.75
2022-12-27T23:04:41.194Z,1.77
2022-12-27T23:07:09.265Z,1.84
2022-12-27T23:09:42.860Z,1.89
2022-12-27T23:12:12.061Z,1.92
2022-12-27T23:14:42.065Z,1.89
2022-12-27T23:17:10.033Z,1.84
2022-12-27T23:19:38.031Z,1.82
2022-12-27T23:22:06.719Z,1.80
2022-12-27T23:24:34.706Z,1.82
2022-12-27T23:27:03.423Z,1.85
2022-12-27T23:29:31.359Z,1.86
2022-12-27T23:31:59.412Z,1.83
2022-12-27T23:34:28.958Z,1.80
2022-12-27T23:36:58.817Z,1.78
2022-12-27T23:39:27.201Z,1.79
2022-12-27T23:41:55.518Z,1.81
2022-12-27T23:44:33.419Z,1.81
2022-12-27T23:47:05.500Z,1.79
2022-12-27T23:49:34.600Z,1.78
2022-12-27T23:52:02.671Z,1.77
2022-12-27T23:54:30.769Z,1.78
2022-12-27T23:56:58.838Z,1.77
2022-12-27T23:59:46.692Z,1.75
